RELEVES METEO NEUVILLE
Donnes mto: Actuelle mardi, 17/07/2018 15:05
Date Horaire Temp. E. Hum. E. P.atmo. Pluie Vent Direction Direction P. de rose Temp au vent Rafales
17/07/2018 15:05 26,9 C 39 % 1016,1 hPa 0,0 mm 4,4 km/h (1 Bft) E-NE 66 11,8 C 26,9 C 11,3 km/h (2 Bft)
17/07/2018 15:00 26,9 C 40 % 1016,1 hPa 0,0 mm 2,6 km/h (1 Bft) S-SO 198 12,1 C 26,9 C 11,3 km/h (2 Bft)
17/07/2018 14:55 26,7 C 38 % 1016,2 hPa 0,0 mm 3,1 km/h (1 Bft) S-SO 205 11,2 C 26,7 C 12,9 km/h (3 Bft)
17/07/2018 14:50 27,1 C 39 % 1016,1 hPa 0,0 mm 2,3 km/h (1 Bft) S 171 11,9 C 27,1 C 16,1 km/h (3 Bft)
17/07/2018 14:45 26,9 C 40 % 1016,0 hPa 0,0 mm 1,8 km/h (1 Bft) SO 216 12,1 C 26,9 C 11,3 km/h (2 Bft)
17/07/2018 14:40 26,6 C 40 % 1016,1 hPa 0,0 mm 2,2 km/h (1 Bft) O-SO 250 11,9 C 26,6 C 11,3 km/h (2 Bft)
17/07/2018 14:35 26,6 C 40 % 1016,1 hPa 0,0 mm 3,9 km/h (1 Bft) N-NO 330 11,9 C 26,6 C 14,5 km/h (3 Bft)
17/07/2018 14:30 26,8 C 39 % 1016,1 hPa 0,0 mm 2,5 km/h (1 Bft) N-NE 17 11,7 C 26,8 C 8,0 km/h (2 Bft)
17/07/2018 14:25 26,9 C 40 % 1016,1 hPa 0,0 mm 0,9 km/h (0 Bft) NO 306 12,1 C 26,9 C 8,0 km/h (2 Bft)
17/07/2018 14:20 26,7 C 40 % 1016,1 hPa 0,0 mm 2,8 km/h (1 Bft) N-NE 20 12,0 C 26,7 C 16,1 km/h (3 Bft)
17/07/2018 14:15 26,7 C 42 % 1016,0 hPa 0,0 mm 2,0 km/h (1 Bft) E 90 12,7 C 26,7 C 12,9 km/h (3 Bft)
17/07/2018 14:10 26,7 C 40 % 1016,1 hPa 0,0 mm 2,1 km/h (1 Bft) N 355 12,0 C 26,7 C 9,7 km/h (2 Bft)
17/07/2018 14:05 26,7 C 41 % 1015,9 hPa 0,0 mm 2,0 km/h (1 Bft) S-SO 194 12,3 C 26,7 C 11,3 km/h (2 Bft)
17/07/2018 14:00 26,3 C 42 % 1016,0 hPa 0,0 mm 3,8 km/h (1 Bft) S 169 12,3 C 26,3 C 14,5 km/h (3 Bft)
17/07/2018 13:55 25,9 C 43 % 1016,0 hPa 0,0 mm 1,6 km/h (1 Bft) N-NE 30 12,3 C 25,9 C 12,9 km/h (3 Bft)
17/07/2018 13:50 26,0 C 41 % 1016,1 hPa 0,0 mm 2,3 km/h (1 Bft) O-SO 254 11,7 C 26,0 C 9,7 km/h (2 Bft)
17/07/2018 13:45 26,1 C 42 % 1016,1 hPa 0,0 mm 1,6 km/h (1 Bft) S-SO 194 12,2 C 26,1 C 9,7 km/h (2 Bft)
17/07/2018 13:40 25,8 C 42 % 1016,1 hPa 0,0 mm 3,5 km/h (1 Bft) O 261 11,9 C 25,8 C 16,1 km/h (3 Bft)
17/07/2018 13:35 25,7 C 43 % 1016,2 hPa 0,0 mm 3,3 km/h (1 Bft) SE 130 12,2 C 25,7 C 12,9 km/h (3 Bft)
17/07/2018 13:30 25,3 C 46 % 1016,1 hPa 0,0 mm 2,7 km/h (1 Bft) O 264 12,8 C 25,3 C 11,3 km/h (2 Bft)
17/07/2018 13:25 25,1 C 44 % 1016,1 hPa 0,0 mm 4,3 km/h (1 Bft) S 178 12,0 C 25,1 C 19,3 km/h (3 Bft)
_ Min-Heure 06:25 14:55 00:00 - 00:00 - - 14:55 06:25 00:00
Minimum _ 16,1 C 38 % 1013,3 hPa - 0,0 km/h (0 Bft) - - 11,2 C 16,1 C 0,0 km/h (0 Bft)
_ Max-Heure 14:50 07:20 13:35 00:00 15:05 - - 09:45 14:50 12:05
Maximum _ 27,1 C 88 % 1016,2 hPa 0,0 mm 4,4 km/h
E-NE (1 Bft)
- - 16,2 C 27,1 C 19,3 km/h
N-NO (3 Bft)
Moyenne _ 20,3 C 67 % 1014,6 hPa #0,0 mm 0,9 km/h (0 Bft) O-SO - 13,5 C 20,3 C 5,2 km/h (1 Bft)
NEUVILLE ST REMY